Time;durP1;ratioP1;P1;durP2;ratioP2;P2;SDS_P1;SDS_P2;PMS_P1;PMS_P2;Temp;Humidity;BMP_temperature;BMP_pressure;BME280_temperature;BME280_humidity;BME280_pressure;Samples;Min_cycle;Max_cycle;Signal;HPM_P1;HPM_P2
2023/01/02 00:00:42;;;;;;;11.50;6.58;;;;;;;19.44;45.90;100589.81;1694107;84;21070;-65
2023/01/02 00:03:09;;;;;;;11.38;6.42;;;;;;;19.96;45.29;100579.23;1694084;84;21578;-65
2023/01/02 00:05:36;;;;;;;10.35;6.37;;;;;;;19.96;45.37;100581.91;1694165;84;21086;-66
2023/01/02 00:08:04;;;;;;;10.08;6.40;;;;;;;20.10;44.78;100585.33;1694233;84;21041;-66
2023/01/02 00:10:32;;;;;;;9.03;6.50;;;;;;;20.21;44.83;100584.58;1694401;84;21197;-67
2023/01/02 00:12:59;;;;;;;10.48;6.85;;;;;;;20.44;44.21;100579.44;1694310;84;21065;-66
2023/01/02 00:15:25;;;;;;;9.40;6.22;;;;;;;19.49;45.98;100589.50;1694382;84;21557;-66
2023/01/02 00:17:54;;;;;;;11.48;7.20;;;;;;;20.18;44.91;100582.13;1694393;84;21026;-66
2023/01/02 00:20:20;;;;;;;10.40;6.12;;;;;;;20.11;44.83;100581.70;1696080;84;21049;-64
2023/01/02 00:22:47;;;;;;;12.07;7.30;;;;;;;19.99;45.27;100581.69;1696160;84;21107;-65
2023/01/02 00:25:14;;;;;;;13.18;7.40;;;;;;;20.35;44.71;100584.10;1695827;84;21049;-64
2023/01/02 00:27:40;;;;;;;14.18;7.67;;;;;;;20.91;43.50;100588.55;1696095;84;21061;-65
2023/01/02 00:30:10;;;;;;;13.68;7.53;;;;;;;20.74;43.78;100591.97;1695715;84;21049;-66
2023/01/02 00:32:37;;;;;;;13.60;7.42;;;;;;;19.27;46.09;100596.25;1695867;84;21084;-66
2023/01/02 00:35:06;;;;;;;10.58;6.83;;;;;;;19.81;44.91;100596.70;1694253;84;21210;-66
2023/01/02 00:37:34;;;;;;;11.75;7.12;;;;;;;20.67;44.21;100594.72;1694676;84;21053;-66
2023/01/02 00:40:00;;;;;;;10.40;6.37;;;;;;;20.87;43.63;100599.98;1694283;84;21105;-67
2023/01/02 00:42:27;;;;;;;12.43;7.33;;;;;;;21.34;43.05;100598.78;1694402;84;21561;-64
2023/01/02 00:44:53;;;;;;;11.03;7.08;;;;;;;21.15;42.93;100607.33;1694288;84;21132;-66
2023/01/02 00:47:20;;;;;;;10.70;7.12;;;;;;;18.74;47.18;100606.37;1694419;83;21214;-66
2023/01/02 00:49:46;;;;;;;11.63;7.42;;;;;;;18.59;47.90;100610.40;1694127;84;21096;-65
2023/01/02 01:04:24;;;;;;;10.72;6.45;;;;;;;18.05;50.06;100603.99;1859653;77;28015;-66
2023/01/02 01:06:50;;;;;;;11.78;6.78;;;;;;;18.31;49.23;100615.72;1862834;77;21005;-65
2023/01/02 01:09:17;;;;;;;11.83;8.03;;;;;;;18.33;49.21;100609.34;1862726;77;21812;-65
2023/01/02 01:11:43;;;;;;;13.45;7.70;;;;;;;18.28;49.46;100615.92;1862502;77;20949;-64
2023/01/02 01:14:10;;;;;;;11.48;7.20;;;;;;;18.57;48.70;100614.13;1862574;77;21044;-65
2023/01/02 01:16:36;;;;;;;10.70;6.37;;;;;;;18.66;48.43;100614.88;1862903;77;21027;-64
2023/01/02 01:19:03;;;;;;;10.15;6.53;;;;;;;18.48;48.92;100617.36;1862640;77;21020;-65
2023/01/02 01:21:30;;;;;;;14.07;6.58;;;;;;;18.12;49.89;100616.84;1862641;77;21102;-64
2023/01/02 01:23:56;;;;;;;10.95;6.78;;;;;;;18.29;49.68;100618.95;1862510;77;21571;-64
2023/01/02 01:26:23;;;;;;;9.05;6.20;;;;;;;18.55;49.06;100610.20;1860266;77;21035;-65
2023/01/02 01:28:54;;;;;;;12.30;6.67;;;;;;;18.34;49.36;100606.22;1817020;79;21048;-64
2023/01/02 01:31:21;;;;;;;10.63;5.95;;;;;;;18.13;49.81;100609.25;1817062;79;21065;-64
2023/01/02 01:33:49;;;;;;;10.90;7.12;;;;;;;18.10;49.98;100608.08;1816738;79;21984;-64
2023/01/02 01:36:22;;;;;;;13.55;7.00;;;;;;;17.93;50.20;100606.93;1816860;79;21096;-66
2023/01/02 01:38:49;;;;;;;12.20;7.42;;;;;;;17.94;50.29;100596.64;1817158;78;21028;-64
2023/01/02 01:41:20;;;;;;;12.25;6.72;;;;;;;18.13;49.80;100602.59;1817059;79;21717;-65
2023/01/02 01:43:55;;;;;;;12.45;7.60;;;;;;;18.07;50.17;100605.61;1817401;79;22000;-68
2023/01/02 01:46:37;;;;;;;13.48;7.10;;;;;;;18.49;49.32;100609.73;1816963;79;21201;-64
2023/01/02 01:49:21;;;;;;;;;;;;;;;18.59;48.94;100607.73;1819590;79;21504;-65
2023/01/02 01:52:00;;;;;;;11.70;6.92;;;;;;;18.35;49.43;100611.92;1816999;78;20296;-65
2023/01/02 01:54:32;;;;;;;10.60;6.72;;;;;;;18.01;50.37;100617.52;1812119;79;21084;-64
2023/01/02 01:57:03;;;;;;;9.50;6.72;;;;;;;18.69;49.14;100616.00;1784385;80;21052;-64
2023/01/02 01:59:30;;;;;;;11.70;6.90;;;;;;;18.60;49.10;100617.44;1784798;80;21803;-64
2023/01/02 02:01:56;;;;;;;13.95;7.92;;;;;;;18.13;50.06;100614.58;1819763;78;21049;-64
2023/01/02 02:04:25;;;;;;;13.58;7.45;;;;;;;18.27;49.94;100623.52;1830703;78;21044;-65
2023/01/02 02:06:52;;;;;;;11.08;6.78;;;;;;;18.46;49.41;100617.45;1831147;78;21075;-65
2023/01/02 02:09:22;;;;;;;12.47;7.58;;;;;;;18.78;49.16;100621.28;1831003;78;21087;-65
2023/01/02 02:11:49;;;;;;;11.55;7.12;;;;;;;18.45;49.03;100610.41;1803631;78;21775;-65
2023/01/02 02:14:16;;;;;;;10.95;6.83;;;;;;;18.29;49.33;100616.28;1830800;78;21574;-64
2023/01/02 02:17:15;;;;;;;10.15;6.92;;;;;;;18.27;49.58;100624.84;1830989;78;21071;-64
2023/01/02 02:20:20;;;;;;;10.82;7.22;;;;;;;18.58;48.97;100620.67;1831058;78;21043;-65
2023/01/02 02:23:07;;;;;;;15.65;7.37;;;;;;;18.62;49.06;100620.86;1830397;78;21082;-65
2023/01/02 02:26:11;;;;;;;13.72;7.58;;;;;;;18.86;48.44;100626.97;1830861;78;21722;-64
2023/01/02 02:28:46;;;;;;;11.55;7.37;;;;;;;18.35;49.43;100635.91;1830883;78;21050;-64
2023/01/02 02:31:37;;;;;;;13.88;7.33;;;;;;;18.53;49.30;100642.78;1831236;78;21085;-66
2023/01/02 02:34:28;;;;;;;13.68;6.53;;;;;;;18.47;49.11;100645.81;1831388;78;21046;-65
2023/01/02 02:37:27;;;;;;;14.80;8.30;;;;;;;17.61;50.85;100644.28;1831599;78;21081;-65
2023/01/02 02:40:05;;;;;;;11.57;6.92;;;;;;;17.96;50.77;100645.38;1830996;78;21612;-66
2023/01/02 02:42:46;;;;;;;11.35;7.33;;;;;;;18.30;49.98;100654.02;1830790;78;21009;-65
2023/01/02 02:45:36;;;;;;;13.20;6.85;;;;;;;18.18;50.03;100655.13;1830413;77;21575;-65
2023/01/02 02:48:16;;;;;;;9.95;6.55;;;;;;;17.77;51.24;100661.08;1831293;78;21030;-64
2023/01/02 02:51:04;;;;;;;10.45;6.78;;;;;;;17.89;50.95;100670.67;1830506;78;21117;-63
2023/01/02 02:53:37;;;;;;;15.20;7.45;;;;;;;18.22;50.16;100676.66;1825783;78;21139;-64
2023/01/02 02:56:05;;;;;;;12.55;7.97;;;;;;;18.08;50.40;100679.27;1830649;77;22166;-64
2023/01/02 02:58:32;;;;;;;9.03;6.22;;;;;;;17.84;51.49;100672.75;1831016;78;21022;-65
2023/01/02 03:01:06;;;;;;;12.95;7.65;;;;;;;17.87;51.10;100674.74;1817977;78;21012;-65
2023/01/02 03:03:33;;;;;;;10.78;6.87;;;;;;;18.20;50.30;100673.23;1796807;79;21095;-65
2023/01/02 03:06:20;;;;;;;13.10;7.17;;;;;;;18.22;50.30;100674.00;1795438;79;21150;-65
2023/01/02 03:08:58;;;;;;;13.78;7.90;;;;;;;18.23;50.28;100670.37;1731939;79;21144;-64
2023/01/02 03:11:46;;;;;;;11.08;6.58;;;;;;;18.06;50.40;100677.66;1795841;79;21099;-64
2023/01/02 03:14:40;;;;;;;11.65;7.20;;;;;;;18.54;49.67;100670.30;1795612;79;21095;-64
2023/01/02 03:17:10;;;;;;;12.00;7.03;;;;;;;18.78;49.13;100667.97;1791523;79;20996;-65
2023/01/02 03:19:43;;;;;;;10.45;6.80;;;;;;;18.94;48.68;100670.05;1791819;80;21153;-65
2023/01/02 03:22:18;;;;;;;11.60;6.90;;;;;;;17.89;50.71;100681.33;1793463;79;21084;-65
2023/01/02 03:24:45;;;;;;;12.18;7.35;;;;;;;17.90;50.67;100685.69;1795391;79;21566;-64
2023/01/02 03:27:18;;;;;;;9.33;6.08;;;;;;;17.64;51.56;100697.84;1791400;79;21445;-65
2023/01/02 03:30:05;;;;;;;13.28;7.58;;;;;;;18.07;50.99;100697.56;1784060;80;21012;-65
2023/01/02 03:32:36;;;;;;;15.72;7.78;;;;;;;17.75;51.28;100704.27;1783968;80;21145;-64
2023/01/02 03:35:08;;;;;;;11.60;6.15;;;;;;;17.87;51.24;100703.20;1783038;79;21047;-64
2023/01/02 03:37:40;;;;;;;11.73;7.47;;;;;;;17.94;51.46;100692.56;1784331;80;21096;-65
2023/01/02 03:40:12;;;;;;;10.88;7.22;;;;;;;17.96;51.13;100693.34;1783867;80;21035;-65
2023/01/02 03:42:52;;;;;;;11.15;6.40;;;;;;;17.65;52.01;100691.59;1784177;80;21087;-64
2023/01/02 03:45:26;;;;;;;;;;;;;;;17.73;51.88;100695.98;1785944;80;21122;-64
2023/01/02 03:48:35;;;;;;;11.70;7.33;;;;;;;17.94;51.15;100700.56;1784188;80;20518;-65
2023/01/02 03:51:02;;;;;;;12.50;6.70;;;;;;;17.65;52.09;100707.56;1784112;80;21047;-64
2023/01/02 03:53:29;;;;;;;12.40;7.87;;;;;;;17.71;52.08;100704.05;1754691;80;21051;-65
2023/01/02 03:56:27;;;;;;;12.28;7.85;;;;;;;17.56;52.43;100707.61;1784031;79;21059;-64
2023/01/02 03:59:16;;;;;;;9.75;5.75;;;;;;;17.65;52.28;100712.41;1784243;80;21138;-67
2023/01/02 04:01:48;;;;;;;12.30;7.55;;;;;;;18.08;50.99;100712.59;1784285;80;21047;-65
2023/01/02 04:04:45;;;;;;;10.93;7.58;;;;;;;18.37;50.17;100718.01;1791751;79;21035;-66
2023/01/02 04:07:14;;;;;;;12.85;6.87;;;;;;;18.07;50.93;100721.55;1798770;79;21161;-65
2023/01/02 04:09:40;;;;;;;11.25;7.45;;;;;;;18.00;51.10;100725.52;1798659;79;21054;-64
2023/01/02 04:12:10;;;;;;;12.68;7.62;;;;;;;18.19;50.66;100730.14;1798640;79;21223;-65
2023/01/02 04:14:45;;;;;;;15.20;7.60;;;;;;;18.24;50.85;100722.75;1798183;79;21594;-64
2023/01/02 04:17:13;;;;;;;15.03;7.58;;;;;;;18.36;50.26;100720.30;1798614;79;21035;-65
2023/01/02 04:19:47;;;;;;;12.93;6.80;;;;;;;18.44;49.94;100731.35;1798597;79;21015;-65
2023/01/02 04:22:22;;;;;;;10.98;6.85;;;;;;;17.78;51.45;100742.73;1790459;79;21052;-64
2023/01/02 04:24:56;;;;;;;13.48;7.70;;;;;;;17.54;51.86;100742.30;1798646;79;21196;-66
2023/01/02 04:27:30;;;;;;;12.58;7.83;;;;;;;17.80;51.38;100747.95;1791481;78;21032;-64
2023/01/02 04:29:56;;;;;;;13.25;7.25;;;;;;;17.58;51.92;100757.66;1831249;78;21539;-65
2023/01/02 04:32:31;;;;;;;12.35;7.55;;;;;;;17.48;52.07;100756.44;1831273;78;21127;-64
2023/01/02 04:34:57;;;;;;;13.70;7.08;;;;;;;17.91;51.45;100762.03;1831387;78;21554;-64
2023/01/02 04:37:37;;;;;;;13.58;7.58;;;;;;;17.75;51.58;100768.20;1831180;78;21181;-64
2023/01/02 04:40:12;;;;;;;15.15;7.47;;;;;;;17.71;51.44;100769.30;1831213;78;21090;-65
2023/01/02 04:42:39;;;;;;;12.53;7.60;;;;;;;17.65;51.84;100774.16;1831103;78;21106;-65
2023/01/02 04:45:08;;;;;;;12.88;8.05;;;;;;;18.09;50.60;100782.29;1831021;78;21063;-66
2023/01/02 04:47:34;;;;;;;13.32;7.95;;;;;;;17.64;51.33;100781.25;1831282;78;21041;-65
2023/01/02 04:50:04;;;;;;;12.20;7.78;;;;;;;17.93;51.25;100776.13;1831048;78;21110;-65
2023/01/02 04:52:31;;;;;;;11.48;7.83;;;;;;;17.71;51.45;100790.62;1831332;78;21035;-65
2023/01/02 04:54:57;;;;;;;14.87;8.65;;;;;;;17.74;51.57;100787.80;1831038;78;21041;-66
2023/01/02 04:57:24;;;;;;;14.23;8.70;;;;;;;17.96;50.96;100789.27;1831370;78;21001;-66
2023/01/02 04:59:52;;;;;;;16.73;8.30;;;;;;;17.95;50.69;100796.89;1829684;78;21499;-67
2023/01/02 05:02:18;;;;;;;12.80;7.53;;;;;;;18.07;50.86;100797.51;1831708;78;21118;-64
2023/01/02 05:04:45;;;;;;;15.38;8.95;;;;;;;17.69;51.23;100793.88;1829113;78;21094;-65
2023/01/02 05:07:12;;;;;;;13.70;7.97;;;;;;;17.70;51.66;100799.56;1828069;78;21091;-65
2023/01/02 05:09:38;;;;;;;14.50;8.93;;;;;;;17.85;51.40;100802.34;1827829;78;21023;-65
2023/01/02 05:12:05;;;;;;;16.65;8.85;;;;;;;17.54;51.76;100816.87;1827860;78;21496;-66
2023/01/02 05:14:32;;;;;;;14.20;7.87;;;;;;;17.34;52.32;100813.11;1828080;78;21217;-66
2023/01/02 05:16:59;;;;;;;18.27;9.03;;;;;;;17.55;52.15;100814.61;1828094;78;21024;-63
2023/01/02 05:19:25;;;;;;;13.93;8.55;;;;;;;17.53;52.26;100818.28;1827727;78;21064;-65
2023/01/02 05:24:39;;;;;;;14.75;8.68;;;;;;;17.39;52.47;100820.36;1827786;78;22035;-65
2023/01/02 05:27:05;;;;;;;12.82;8.15;;;;;;;17.29;52.75;100826.66;1812916;78;21091;-66
2023/01/02 05:29:32;;;;;;;16.70;9.73;;;;;;;16.77;53.95;100828.94;1783826;80;21008;-65
2023/01/02 05:31:59;;;;;;;16.82;8.78;;;;;;;16.73;54.08;100827.84;1784231;80;21019;-65
2023/01/02 05:34:26;;;;;;;14.95;9.00;;;;;;;16.78;54.18;100834.63;1784027;80;21138;-65
2023/01/02 05:36:53;;;;;;;14.25;9.25;;;;;;;16.47;54.80;100838.01;1783835;80;21521;-64
2023/01/02 05:39:20;;;;;;;13.40;7.60;;;;;;;17.26;53.25;100842.81;1783976;80;21570;-65
2023/01/02 05:41:46;;;;;;;13.00;8.90;;;;;;;17.75;52.08;100841.45;1784053;80;21086;-64
2023/01/02 05:44:12;;;;;;;14.13;7.90;;;;;;;16.98;53.27;100844.27;1784309;80;21067;-66
2023/01/02 05:46:39;;;;;;;14.40;8.88;;;;;;;17.35;52.95;100852.11;1784115;80;21024;-65
2023/01/02 05:49:09;;;;;;;13.00;8.90;;;;;;;17.40;52.59;100846.06;1784048;80;21027;-65
2023/01/02 05:51:36;;;;;;;14.95;8.30;;;;;;;18.00;51.43;100842.78;1784211;80;21114;-64
2023/01/02 05:54:04;;;;;;;11.03;7.53;;;;;;;18.10;51.51;100842.63;1784022;80;21059;-67
2023/01/02 05:56:31;;;;;;;16.37;9.58;;;;;;;17.96;50.91;100842.56;1784046;80;21044;-65
2023/01/02 05:58:57;;;;;;;13.68;8.50;;;;;;;17.64;51.83;100835.86;1784183;80;21055;-65
2023/01/02 06:01:26;;;;;;;18.42;9.08;;;;;;;17.31;52.75;100842.09;1784164;80;21563;-66
2023/01/02 06:03:58;;;;;;;14.18;8.80;;;;;;;17.51;52.39;100836.17;1784379;79;21590;-65
2023/01/02 06:06:36;;;;;;;14.28;8.88;;;;;;;18.00;51.43;100836.13;1784111;80;20992;-66
2023/01/02 06:09:04;;;;;;;16.67;9.33;;;;;;;17.94;51.42;100837.79;1784172;80;21051;-63
2023/01/02 06:11:31;;;;;;;15.25;9.08;;;;;;;17.82;51.53;100838.02;1783980;80;21082;-65
2023/01/02 06:13:58;;;;;;;17.30;8.88;;;;;;;17.71;51.93;100835.91;1784476;80;21035;-66
2023/01/02 06:16:26;;;;;;;14.75;9.48;;;;;;;18.06;51.13;100838.45;1784078;80;21551;-66
2023/01/02 06:18:52;;;;;;;16.27;9.05;;;;;;;18.02;51.20;100839.08;1784568;80;21567;-66
2023/01/02 06:21:20;;;;;;;15.13;8.73;;;;;;;17.76;51.82;100847.19;1783988;80;21020;-65
2023/01/02 06:23:46;;;;;;;13.70;9.35;;;;;;;18.04;51.30;100855.00;1784195;80;21048;-66
2023/01/02 06:26:16;;;;;;;12.00;7.60;;;;;;;17.60;52.13;100854.31;1784339;80;21059;-65
2023/01/02 06:28:43;;;;;;;17.27;9.48;;;;;;;17.14;53.16;100863.44;1795943;79;21115;-66
2023/01/02 06:31:13;;;;;;;12.70;7.08;;;;;;;16.96;53.87;100859.45;1795568;79;21546;-66
2023/01/02 06:33:40;;;;;;;12.23;7.20;;;;;;;17.24;53.84;100851.34;1795984;79;21539;-65
2023/01/02 06:36:12;;;;;;;15.25;8.48;;;;;;;17.89;52.27;100854.52;1795512;79;21536;-66
2023/01/02 06:38:38;;;;;;;11.25;6.90;;;;;;;17.53;53.11;100869.76;1795690;79;21259;-66
2023/01/02 06:41:08;;;;;;;14.98;9.20;;;;;;;17.67;52.72;100866.34;1795613;79;21226;-65
2023/01/02 06:43:38;;;;;;;15.68;8.58;;;;;;;17.33;53.25;100874.81;1795751;79;21048;-65
2023/01/02 06:46:05;;;;;;;14.05;8.50;;;;;;;16.93;54.25;100877.36;1795181;79;20988;-65
2023/01/02 06:48:32;;;;;;;14.60;8.80;;;;;;;17.53;52.92;100873.75;1795808;79;21027;-64
2023/01/02 06:51:05;;;;;;;13.10;7.33;;;;;;;17.93;52.43;100882.23;1795530;79;21051;-65
2023/01/02 06:53:36;;;;;;;14.75;9.15;;;;;;;18.29;51.54;100879.78;1795438;79;21126;-65
2023/01/02 06:56:03;;;;;;;15.70;8.45;;;;;;;18.34;51.07;100884.85;1795822;79;21039;-66
2023/01/02 06:58:33;;;;;;;13.85;7.47;;;;;;;18.35;51.37;100891.89;1795439;79;21051;-66
2023/01/02 07:01:08;;;;;;;17.62;9.18;;;;;;;17.94;52.14;100897.75;1795609;79;21068;-66
2023/01/02 07:03:35;;;;;;;14.78;9.40;;;;;;;18.28;51.62;100897.19;1795747;79;21164;-66
2023/01/02 07:06:07;;;;;;;12.78;8.60;;;;;;;18.13;52.21;100901.13;1797878;79;21135;-65
2023/01/02 07:08:35;;;;;;;14.50;9.55;;;;;;;18.42;51.14;100898.59;1798223;79;21028;-65
2023/01/02 07:11:12;;;;;;;12.80;8.10;;;;;;;18.70;50.48;100900.50;1797999;79;21055;-65
2023/01/02 07:13:40;;;;;;;15.83;8.40;;;;;;;18.43;50.85;100897.66;1797996;79;21051;-65
2023/01/02 07:16:08;;;;;;;15.95;9.23;;;;;;;18.59;50.50;100909.16;1798277;79;21059;-66
2023/01/02 07:18:35;;;;;;;17.55;8.73;;;;;;;18.82;50.24;100900.31;1798184;79;21140;-65
2023/01/02 07:21:05;;;;;;;15.03;9.55;;;;;;;18.36;51.30;100902.96;1798054;79;21043;-67
2023/01/02 07:23:31;;;;;;;14.15;9.05;;;;;;;18.77;50.94;100903.70;1798269;79;21044;-65
2023/01/02 07:26:00;;;;;;;14.85;9.40;;;;;;;19.49;49.71;100902.89;1797724;79;21075;-66
2023/01/02 07:28:27;;;;;;;15.55;9.15;;;;;;;19.63;49.14;100905.18;1798338;79;21682;-65
2023/01/02 07:31:00;;;;;;;11.38;7.72;;;;;;;19.46;49.55;100911.09;1797883;79;21197;-66
2023/01/02 07:33:30;;;;;;;14.75;9.35;;;;;;;20.05;49.13;100910.97;1798497;79;20995;-65
2023/01/02 07:36:01;;;;;;;15.55;9.23;;;;;;;20.55;47.90;100907.30;1798453;79;21003;-66
2023/01/02 07:38:28;;;;;;;13.00;8.58;;;;;;;20.58;48.25;100911.13;1798636;79;21027;-65
2023/01/02 07:40:55;;;;;;;17.95;9.45;;;;;;;21.47;46.78;100915.80;1798241;79;20979;-65
2023/01/02 07:43:22;;;;;;;14.30;8.05;;;;;;;21.81;46.02;100919.23;1798389;79;21155;-66
2023/01/02 07:45:48;;;;;;;13.22;7.67;;;;;;;22.49;45.04;100912.52;1798138;79;22117;-66
2023/01/02 07:48:16;;;;;;;11.53;7.80;;;;;;;22.56;44.14;100912.42;1798288;79;21034;-67
2023/01/02 07:50:42;;;;;;;15.03;8.00;;;;;;;22.68;42.92;100911.48;1798207;79;21086;-66
2023/01/02 07:53:08;;;;;;;14.85;8.83;;;;;;;22.94;42.45;100915.39;1798362;78;21023;-66
2023/01/02 07:55:35;;;;;;;14.68;7.97;;;;;;;23.27;41.81;100910.59;1798088;79;21763;-68
2023/01/02 07:58:01;;;;;;;16.32;9.48;;;;;;;23.20;41.96;100920.97;1798424;79;21539;-68
2023/01/02 08:00:27;;;;;;;14.43;8.78;;;;;;;23.82;40.95;100918.85;1798061;78;21530;-66
2023/01/02 08:02:55;;;;;;;13.78;8.00;;;;;;;23.75;40.54;100917.64;1798118;79;21082;-66
2023/01/02 08:05:21;;;;;;;14.33;9.70;;;;;;;24.04;40.29;100921.52;1792124;79;21115;-66
2023/01/02 08:07:48;;;;;;;16.15;9.30;;;;;;;24.18;39.49;100927.59;1783912;80;21149;-66
2023/01/02 08:10:16;;;;;;;14.60;9.03;;;;;;;24.35;38.93;100927.08;1783916;80;21000;-66
2023/01/02 08:12:44;;;;;;;13.32;8.53;;;;;;;25.13;37.80;100930.45;1784336;80;21060;-67
2023/01/02 08:15:10;;;;;;;13.85;7.90;;;;;;;25.61;36.73;100928.56;1783990;80;21035;-67
2023/01/02 08:17:38;;;;;;;12.58;8.40;;;;;;;26.09;35.36;100920.30;1784038;80;21036;-67
2023/01/02 08:20:07;;;;;;;12.33;8.00;;;;;;;25.52;35.60;100930.72;1784465;80;21090;-67
2023/01/02 08:22:34;;;;;;;13.88;8.10;;;;;;;25.75;35.11;100928.19;1783896;80;21515;-66
2023/01/02 08:25:02;;;;;;;13.75;8.38;;;;;;;26.00;35.24;100932.80;1783933;80;21575;-67
2023/01/02 08:27:29;;;;;;;13.00;7.50;;;;;;;26.02;34.92;100929.47;1806401;78;21028;-67
2023/01/02 08:29:55;;;;;;;13.00;7.95;;;;;;;26.13;34.19;100926.62;1828357;78;21020;-66
2023/01/02 08:32:23;;;;;;;12.55;8.05;;;;;;;26.68;33.67;100928.87;1827816;78;21125;-66
2023/01/02 08:34:50;;;;;;;12.60;7.95;;;;;;;26.61;33.49;100930.94;1827885;78;21091;-66
2023/01/02 08:37:17;;;;;;;14.90;8.05;;;;;;;26.61;33.06;100928.24;1827878;78;21499;-68
2023/01/02 08:39:45;;;;;;;11.68;8.03;;;;;;;26.24;33.82;100942.37;1828067;78;21021;-67
2023/01/02 08:42:12;;;;;;;11.88;8.13;;;;;;;26.59;33.72;100932.42;1828055;78;21095;-66
2023/01/02 08:44:39;;;;;;;16.10;8.58;;;;;;;26.90;33.02;100937.20;1827990;78;21165;-67
2023/01/02 08:47:07;;;;;;;13.62;7.95;;;;;;;27.04;32.49;100933.20;1827900;78;21012;-67
2023/01/02 08:49:35;;;;;;;12.43;8.45;;;;;;;26.91;32.96;100933.48;1827034;78;21083;-67
2023/01/02 08:52:01;;;;;;;13.90;7.62;;;;;;;26.16;33.64;100926.38;1828242;78;21043;-66
2023/01/02 08:54:30;;;;;;;12.37;7.80;;;;;;;26.99;32.60;100925.53;1827998;78;21029;-66
2023/01/02 08:56:56;;;;;;;10.95;7.45;;;;;;;27.02;32.60;100926.24;1828306;78;21727;-67
2023/01/02 08:59:24;;;;;;;11.80;7.78;;;;;;;27.60;31.25;100913.94;1828098;78;21095;-69
2023/01/02 09:01:51;;;;;;;12.30;7.58;;;;;;;27.17;31.74;100920.72;1828346;78;21025;-67
2023/01/02 09:04:20;;;;;;;11.15;7.95;;;;;;;27.40;31.72;100918.08;1827920;78;21072;-66
2023/01/02 09:06:47;;;;;;;10.72;7.50;;;;;;;27.58;31.49;100915.47;1827859;78;21091;-67
2023/01/02 09:09:18;;;;;;;12.88;8.18;;;;;;;27.55;31.43;100900.02;1827851;78;21838;-67
2023/01/02 09:11:50;;;;;;;14.98;8.63;;;;;;;27.34;31.83;100899.73;1827771;78;21048;-67
2023/01/02 09:14:18;;;;;;;12.23;8.38;;;;;;;27.93;31.55;100901.73;1828215;78;21009;-66
2023/01/02 09:16:45;;;;;;;14.18;8.85;;;;;;;28.17;31.32;100901.14;1828260;78;22217;-66
2023/01/02 09:19:12;;;;;;;13.32;8.05;;;;;;;28.33;30.45;100902.33;1828156;78;21135;-66
2023/01/02 09:21:39;;;;;;;12.35;7.92;;;;;;;28.58;29.94;100898.03;1828122;78;21104;-66
2023/01/02 09:24:07;;;;;;;10.98;7.92;;;;;;;29.00;29.58;100896.84;1828116;78;20985;-67
2023/01/02 09:26:36;;;;;;;12.58;7.83;;;;;;;29.05;29.11;100899.92;1822021;78;21089;-67
2023/01/02 09:29:04;;;;;;;14.45;8.65;;;;;;;28.95;29.42;100896.48;1784082;80;20981;-67
2023/01/02 09:31:31;;;;;;;14.58;7.75;;;;;;;29.06;28.95;100896.22;1784015;80;21036;-66
2023/01/02 09:33:57;;;;;;;14.73;8.18;;;;;;;29.10;28.82;100895.93;1784112;80;21155;-66
2023/01/02 09:36:23;;;;;;;13.85;8.23;;;;;;;28.92;29.10;100888.67;1784317;80;21114;-67
2023/01/02 09:38:54;;;;;;;12.28;8.23;;;;;;;28.87;28.93;100888.27;1784093;80;21071;-66
2023/01/02 09:41:39;;;;;;;13.03;8.70;;;;;;;29.07;29.11;100887.09;1783538;80;20993;-66
2023/01/02 09:44:33;;;;;;;11.00;7.85;;;;;;;28.85;29.18;100894.37;1784274;80;21079;-67
2023/01/02 09:47:14;;;;;;;11.12;7.90;;;;;;;28.41;29.91;100882.95;1784238;80;21519;-66
2023/01/02 09:49:48;;;;;;;10.55;7.90;;;;;;;29.78;28.47;100877.52;1784328;80;21622;-67
2023/01/02 09:52:19;;;;;;;13.43;7.85;;;;;;;29.78;27.87;100880.23;1784365;80;21328;-66
2023/01/02 09:54:46;;;;;;;11.48;7.92;;;;;;;28.96;28.87;100884.61;1784025;79;21044;-66
2023/01/02 09:57:27;;;;;;;13.72;8.20;;;;;;;30.08;28.20;100882.87;1783985;80;21019;-68
2023/01/02 10:00:02;;;;;;;;;;;;;;;30.66;27.30;100890.10;1787019;80;21069;-67
2023/01/02 10:02:56;;;;;;;14.07;7.87;;;;;;;30.57;27.46;100893.84;1783811;79;20273;-66
2023/01/02 10:05:50;;;;;;;14.55;8.38;;;;;;;31.13;26.68;100893.52;1783623;80;21118;-67
2023/01/02 10:08:49;;;;;;;15.65;8.45;;;;;;;29.98;27.43;100895.72;1784050;80;21012;-67
2023/01/02 10:11:38;;;;;;;14.45;8.08;;;;;;;30.39;26.92;100891.78;1783945;79;21066;-68
2023/01/02 10:14:18;;;;;;;11.25;8.43;;;;;;;29.75;27.55;100904.48;1784219;80;21113;-67
2023/01/02 10:16:49;;;;;;;13.37;8.23;;;;;;;29.86;27.43;100891.98;1784231;80;21008;-66
2023/01/02 10:19:28;;;;;;;14.40;8.70;;;;;;;29.40;27.47;100904.95;1784162;80;21023;-68
2023/01/02 10:21:57;;;;;;;16.62;7.92;;;;;;;29.43;27.77;100903.27;1784117;80;21067;-67
2023/01/02 10:24:38;;;;;;;16.97;9.43;;;;;;;29.26;28.18;100899.62;1784278;80;21087;-66
2023/01/02 10:27:05;;;;;;;15.45;9.28;;;;;;;29.40;28.04;100892.75;1799184;78;21647;-66
2023/01/02 10:29:39;;;;;;;15.03;8.60;;;;;;;29.22;28.40;100887.89;1828006;78;21566;-66
2023/01/02 10:32:18;;;;;;;12.98;8.68;;;;;;;29.42;28.12;100895.28;1828100;78;20992;-67
2023/01/02 10:35:11;;;;;;;14.95;8.30;;;;;;;29.43;27.92;100886.98;1828345;78;21055;-67
2023/01/02 10:37:37;;;;;;;13.95;9.18;;;;;;;29.74;27.85;100879.69;1827040;78;21039;-67
2023/01/02 10:40:04;;;;;;;14.87;9.20;;;;;;;29.99;27.62;100874.36;1828164;78;21393;-67
2023/01/02 10:42:32;;;;;;;18.42;10.05;;;;;;;30.19;27.53;100877.13;1828019;78;21135;-67
2023/01/02 10:44:58;;;;;;;17.00;9.63;;;;;;;29.90;27.66;100877.55;1827970;78;21052;-68
2023/01/02 10:47:38;;;;;;;14.15;9.50;;;;;;;29.92;27.51;100885.54;1798212;78;21282;-66
2023/01/02 10:50:24;;;;;;;18.77;10.75;;;;;;;29.95;27.21;100878.41;1828605;78;21028;-66
2023/01/02 10:52:53;;;;;;;18.07;11.33;;;;;;;29.71;27.69;100882.75;1828142;78;21572;-67
2023/01/02 10:55:42;;;;;;;19.67;10.85;;;;;;;29.56;28.04;100878.90;1798358;78;21504;-66
2023/01/02 10:58:22;;;;;;;17.40;11.55;;;;;;;29.80;27.18;100873.62;1827922;78;21072;-66
2023/01/02 11:00:54;;;;;;;18.90;11.25;;;;;;;29.76;27.16;100879.02;1828572;78;21036;-66
2023/01/02 11:03:24;;;;;;;26.10;11.65;;;;;;;29.85;27.18;100869.89;1786093;80;21048;-65
2023/01/02 11:05:53;;;;;;;17.20;11.40;;;;;;;29.82;27.38;100872.95;1755337;81;27119;-67
2023/01/02 11:08:23;;;;;;;17.90;11.38;;;;;;;30.40;26.90;100867.69;1754981;81;22214;-68
2023/01/02 11:10:51;;;;;;;16.77;10.63;;;;;;;30.49;26.65;100880.26;1749268;82;21104;-67
2023/01/02 11:13:20;;;;;;;19.48;11.33;;;;;;;30.60;26.48;100874.49;1786214;80;21295;-66
2023/01/02 11:16:01;;;;;;;18.65;11.35;;;;;;;30.95;26.14;100877.91;1773786;80;21088;-68
2023/01/02 11:18:31;;;;;;;18.57;11.45;;;;;;;31.21;26.07;100876.84;1770015;81;22058;-66
2023/01/02 11:21:03;;;;;;;17.48;11.50;;;;;;;31.15;25.73;100881.95;1770053;80;21067;-66
2023/01/02 11:23:38;;;;;;;22.20;12.33;;;;;;;30.95;25.59;100880.63;1769775;81;21052;-67
2023/01/02 11:26:12;;;;;;;19.32;11.70;;;;;;;30.44;26.59;100878.56;1785997;80;21037;-66
2023/01/02 11:28:39;;;;;;;20.08;12.55;;;;;;;30.37;26.55;100878.87;1754900;81;21010;-66
2023/01/02 11:31:15;;;;;;;19.20;11.80;;;;;;;30.22;26.66;100884.93;1755081;81;21142;-66
2023/01/02 11:33:41;;;;;;;22.25;12.23;;;;;;;30.14;26.88;100884.05;1749095;82;21038;-67
2023/01/02 11:36:15;;;;;;;23.70;12.47;;;;;;;30.13;26.86;100883.21;1785910;80;21048;-67
2023/01/02 11:38:52;;;;;;;16.73;10.93;;;;;;;30.57;26.24;100880.77;1725206;81;21647;-66
2023/01/02 11:44:37;;;;;;;16.97;10.40;;;;;;;30.07;26.27;100883.87;1748971;81;21104;-65
2023/01/02 11:47:04;;;;;;;15.80;10.28;;;;;;;30.31;26.21;100877.17;1761680;81;21061;-65
2023/01/02 11:49:39;;;;;;;15.80;11.00;;;;;;;30.62;25.84;100881.97;1786096;80;22109;-67
2023/01/02 11:52:08;;;;;;;15.25;10.35;;;;;;;30.76;25.56;100875.48;1753970;81;21059;-66
2023/01/02 11:54:40;;;;;;;17.60;10.65;;;;;;;30.64;25.82;100867.67;1755179;81;21006;-66